Yates Center, Kansas
Current Conditions -  °F | °C
As of 7:00 PM on Wednesday 17 Dec 2014 (Local Time) from KCNU Reporting Station
Unknown Precip Unknown Precip  
Wind Chill: 23°   Ceiling: 2600
Heat Index: 31°   Visibility: 7mi
Dew Point: 29°   Wind: 8mph
Humidity: 92%   Direction: 70°ENE
Pressure: 30.24"   Gusts: NA
Location:  37.88°N, 95.73°W
Report Text: KCNU 180100Z AUTO 07007KT 7SM UP BKN026 OVC049 M01/M02 A3024 RMK AO2 P0000 T10061017 $
Loading
Personal Weather Stations






























Interactive Weather Map New forecast layout! Learn more

10-Day Weather Forecast

Advertisements
Track Severe Weather on mobile